Terminal Aerodrome Forecast
Issued by NWS

Current Version | Previous Version | Graphics & Text | Print | Product List | Glossary On
Versions: 1 2 3 4 5 6 7 8 9 10 11 12 13 14 15 16 17 18 19 20 21
426
FTUS41 KILN 211120
TAFLUK
TAF
KLUK 211120Z 2112/2212 15003KT 1/2SM FG FEW002 BKN250
     FM211330 17007KT P6SM SCT130 BKN250
     FM220000 16003KT P6SM SCT120 BKN250
     FM220200 00000KT 2SM BR FEW003 BKN250
     FM220400 00000KT 1/4SM FG VV002=

USA.gov is the U.S. government's official web portal to all federal, state and local government web resources and services.